createdAt,value
2024-02-02T00:02:06.201Z,85.52
2024-02-02T00:04:32.926Z,85.79
2024-02-02T00:06:59.496Z,85.58
2024-02-02T00:09:26.180Z,85.50
2024-02-02T00:11:52.924Z,85.77
2024-02-02T00:14:19.686Z,85.04
2024-02-02T00:16:46.673Z,84.82
2024-02-02T00:19:13.483Z,84.49
2024-02-02T00:21:40.178Z,84.34
2024-02-02T00:24:06.875Z,84.23
2024-02-02T00:26:33.415Z,83.94
2024-02-02T00:29:00.006Z,83.84
2024-02-02T00:31:26.492Z,83.93
2024-02-02T00:33:53.250Z,83.67
2024-02-02T00:36:20.131Z,83.83
2024-02-02T00:38:46.839Z,84.09
2024-02-02T00:41:13.372Z,83.99
2024-02-02T00:43:40.116Z,84.04
2024-02-02T00:46:06.672Z,84.04
2024-02-02T00:48:35.280Z,84.03
2024-02-02T00:51:02.582Z,83.94
2024-02-02T00:53:30.073Z,84.11
2024-02-02T00:55:56.613Z,83.89
2024-02-02T00:58:23.136Z,83.83
2024-02-02T01:00:49.688Z,84.15
2024-02-02T01:03:16.435Z,84.12
2024-02-02T01:05:43.146Z,84.11
2024-02-02T01:08:09.884Z,84.00
2024-02-02T01:10:36.571Z,83.81
2024-02-02T01:13:03.454Z,83.88
2024-02-02T01:15:30.157Z,83.65
2024-02-02T01:17:57.001Z,83.51
2024-02-02T01:20:23.851Z,83.85
2024-02-02T01:22:50.352Z,83.61
2024-02-02T01:25:16.926Z,83.94
2024-02-02T01:27:44.264Z,84.20
2024-02-02T01:30:14.194Z,84.16
2024-02-02T01:32:40.975Z,84.18
2024-02-02T01:35:09.391Z,84.21
2024-02-02T01:37:35.898Z,84.04
2024-02-02T01:40:02.616Z,84.26
2024-02-02T01:42:29.657Z,84.20
2024-02-02T01:44:56.260Z,84.20
2024-02-02T01:47:23.036Z,84.34
2024-02-02T01:49:49.721Z,84.31
2024-02-02T01:52:16.459Z,84.28
2024-02-02T01:54:43.208Z,84.50
2024-02-02T01:57:10.070Z,84.71
2024-02-02T01:59:37.155Z,84.53
2024-02-02T02:02:05.072Z,84.63
2024-02-02T02:04:31.809Z,84.60
2024-02-02T02:06:58.635Z,84.41
2024-02-02T02:09:25.495Z,84.66
2024-02-02T02:11:52.944Z,84.80
2024-02-02T02:14:19.912Z,84.72
2024-02-02T02:16:46.507Z,84.24
2024-02-02T02:19:17.756Z,84.41
2024-02-02T02:21:44.499Z,84.27
2024-02-02T02:24:11.661Z,84.50
2024-02-02T02:26:39.527Z,84.65
2024-02-02T02:29:06.200Z,84.15
2024-02-02T02:31:32.797Z,84.69
2024-02-02T02:33:59.809Z,84.73
2024-02-02T02:36:27.561Z,84.54
2024-02-02T02:38:54.513Z,84.61
2024-02-02T02:41:21.246Z,84.75
2024-02-02T02:43:48.048Z,84.79
2024-02-02T02:46:14.589Z,84.85
2024-02-02T02:48:41.263Z,84.62
2024-02-02T02:51:07.821Z,84.71
2024-02-02T02:53:35.639Z,84.70
2024-02-02T02:56:02.267Z,84.73
2024-02-02T02:58:28.990Z,85.04
2024-02-02T03:01:01.595Z,85.38
2024-02-02T03:03:28.366Z,85.33
2024-02-02T03:05:55.068Z,85.08
2024-02-02T03:08:21.774Z,85.52
2024-02-02T03:10:48.640Z,85.26
2024-02-02T03:13:15.177Z,85.30
2024-02-02T03:15:42.871Z,85.01
2024-02-02T03:18:11.255Z,84.84
2024-02-02T03:20:37.814Z,85.06
2024-02-02T03:23:04.744Z,85.28
2024-02-02T03:25:31.719Z,85.42
2024-02-02T03:27:58.268Z,85.27
2024-02-02T03:30:25.125Z,85.13
2024-02-02T03:32:51.854Z,85.10
2024-02-02T03:35:18.448Z,85.21
2024-02-02T03:37:44.980Z,85.08
2024-02-02T03:40:12.335Z,85.08
2024-02-02T03:42:38.954Z,85.33
2024-02-02T03:45:06.897Z,85.23
2024-02-02T03:47:33.621Z,84.87
2024-02-02T03:50:00.437Z,84.88
2024-02-02T03:52:27.316Z,84.95
2024-02-02T03:54:53.852Z,85.04
2024-02-02T03:57:20.498Z,84.96
2024-02-02T03:59:47.288Z,84.64
2024-02-02T04:02:13.857Z,84.93
2024-02-02T04:04:40.676Z,84.85
2024-02-02T04:07:07.502Z,84.63
2024-02-02T04:09:34.730Z,84.48
2024-02-02T04:12:01.588Z,84.45
2024-02-02T04:14:31.393Z,84.65
2024-02-02T04:16:58.255Z,84.28
2024-02-02T04:19:25.143Z,84.11
2024-02-02T04:21:51.801Z,84.31
2024-02-02T04:24:18.537Z,84.12
2024-02-02T04:26:45.071Z,84.32
2024-02-02T04:29:12.307Z,84.12
2024-02-02T04:31:38.851Z,84.29
2024-02-02T04:34:05.724Z,83.90
2024-02-02T04:36:32.492Z,84.04
2024-02-02T04:38:59.181Z,84.09
2024-02-02T04:41:25.953Z,84.32
2024-02-02T04:43:52.532Z,84.16
2024-02-02T04:46:19.074Z,83.98
2024-02-02T04:48:45.718Z,84.28
2024-02-02T04:51:12.544Z,84.22
2024-02-02T04:53:39.141Z,84.16
2024-02-02T04:56:05.858Z,84.53
2024-02-02T04:58:32.449Z,84.74
2024-02-02T05:00:59.120Z,84.57
2024-02-02T05:03:25.814Z,84.91
2024-02-02T05:05:52.392Z,84.79
2024-02-02T05:08:19.443Z,84.57
2024-02-02T05:10:46.093Z,84.48
2024-02-02T05:13:12.630Z,84.76
2024-02-02T05:15:39.656Z,84.98
2024-02-02T05:18:07.923Z,84.95
2024-02-02T05:20:34.591Z,84.84
2024-02-02T05:23:01.177Z,85.03
2024-02-02T05:25:27.848Z,85.37
2024-02-02T05:27:54.468Z,85.24
2024-02-02T05:30:21.820Z,85.14
2024-02-02T05:32:48.552Z,85.04
2024-02-02T05:35:15.080Z,85.03
2024-02-02T05:37:41.901Z,85.64
2024-02-02T05:40:10.019Z,85.79
2024-02-02T05:42:36.709Z,85.75
2024-02-02T05:45:03.452Z,85.99
2024-02-02T05:47:30.108Z,86.35
2024-02-02T05:49:56.860Z,86.09
2024-02-02T05:52:23.552Z,86.23
2024-02-02T05:54:50.075Z,86.58
2024-02-02T05:57:16.833Z,86.95
2024-02-02T05:59:43.430Z,87.08
2024-02-02T06:02:09.955Z,86.99
2024-02-02T06:04:36.526Z,87.28
2024-02-02T06:07:03.335Z,87.60
2024-02-02T06:09:30.225Z,87.62
2024-02-02T06:11:58.619Z,87.23
2024-02-02T06:14:26.857Z,87.59
2024-02-02T06:16:53.387Z,87.75
2024-02-02T06:19:20.070Z,87.86
2024-02-02T06:21:46.707Z,87.53
2024-02-02T06:24:13.654Z,87.46
2024-02-02T06:26:40.502Z,87.25
2024-02-02T06:29:07.028Z,87.29
2024-02-02T06:31:33.596Z,86.98
2024-02-02T06:34:00.233Z,86.96
2024-02-02T06:36:28.430Z,86.79
2024-02-02T06:38:57.040Z,86.97
2024-02-02T06:41:23.910Z,86.84
2024-02-02T06:43:51.391Z,86.97
2024-02-02T06:46:18.328Z,86.84
2024-02-02T06:48:48.832Z,86.72
2024-02-02T06:51:15.590Z,86.42
2024-02-02T06:53:42.145Z,86.69
2024-02-02T06:56:39.075Z,86.76
2024-02-02T06:59:07.237Z,86.44
2024-02-02T07:01:34.447Z,86.25
2024-02-02T07:04:04.191Z,86.59
2024-02-02T07:06:33.715Z,86.76
2024-02-02T07:09:02.492Z,86.60
2024-02-02T07:11:35.441Z,86.71
2024-02-02T07:14:10.263Z,86.42
2024-02-02T07:16:37.975Z,86.37
2024-02-02T07:19:05.218Z,86.61
2024-02-02T07:21:34.606Z,86.52
2024-02-02T07:24:01.393Z,86.60
2024-02-02T07:26:31.094Z,86.51
2024-02-02T07:28:59.156Z,86.20
2024-02-02T07:31:35.035Z,86.48
2024-02-02T07:34:21.492Z,86.04
2024-02-02T07:36:48.103Z,85.79
2024-02-02T07:39:28.236Z,86.42
2024-02-02T07:41:54.748Z,86.06
2024-02-02T07:44:22.992Z,85.58
2024-02-02T07:46:49.505Z,85.55
2024-02-02T07:49:16.176Z,85.51
2024-02-02T07:51:44.429Z,85.57
2024-02-02T07:54:11.761Z,85.32
2024-02-02T07:56:38.376Z,85.42
2024-02-02T07:59:04.973Z,85.57
2024-02-02T08:01:34.361Z,86.18
2024-02-02T08:04:04.844Z,86.22
2024-02-02T08:06:31.596Z,86.58
2024-02-02T08:08:58.585Z,86.34
2024-02-02T08:11:26.876Z,86.87
2024-02-02T08:13:53.495Z,87.52
2024-02-02T08:16:20.126Z,87.36
2024-02-02T08:18:47.120Z,87.94
2024-02-02T08:21:13.887Z,87.99
2024-02-02T08:23:40.520Z,88.59
2024-02-02T08:26:07.588Z,88.94
2024-02-02T08:28:42.037Z,89.27
2024-02-02T08:31:15.478Z,89.11
2024-02-02T08:33:43.746Z,89.29
2024-02-02T08:36:11.797Z,89.76
2024-02-02T08:38:38.694Z,89.83
2024-02-02T08:41:06.028Z,89.61
2024-02-02T08:43:32.572Z,89.58
2024-02-02T08:46:14.624Z,90.72
2024-02-02T08:48:46.604Z,90.06
2024-02-02T08:51:22.536Z,89.99
2024-02-02T08:53:50.379Z,89.49
2024-02-02T08:56:17.152Z,89.50
2024-02-02T08:58:43.681Z,89.19
2024-02-02T09:01:45.245Z,89.43
2024-02-02T09:04:46.963Z,89.14
2024-02-02T09:07:18.276Z,88.37
2024-02-02T09:09:45.258Z,88.05
2024-02-02T09:12:12.073Z,87.85
2024-02-02T09:14:38.699Z,87.44
2024-02-02T09:17:07.497Z,87.38
2024-02-02T09:19:46.918Z,87.46
2024-02-02T09:22:17.381Z,86.70
2024-02-02T09:24:45.334Z,86.74
2024-02-02T09:27:40.187Z,86.88
2024-02-02T09:30:19.052Z,86.73
2024-02-02T09:32:46.123Z,86.44
2024-02-02T09:35:54.132Z,86.84
2024-02-02T09:38:20.765Z,86.37
2024-02-02T09:41:02.390Z,86.55
2024-02-02T09:44:00.666Z,86.89
2024-02-02T09:47:03.612Z,86.92
2024-02-02T09:49:41.525Z,86.78
2024-02-02T09:52:24.466Z,87.15
2024-02-02T09:55:02.534Z,86.85
2024-02-02T09:58:07.667Z,86.28
2024-02-02T10:00:58.461Z,86.71
2024-02-02T10:03:35.325Z,85.78
2024-02-02T10:06:26.893Z,86.00
2024-02-02T10:09:18.853Z,85.90
2024-02-02T10:12:10.305Z,85.58
2024-02-02T10:15:18.509Z,85.36
2024-02-02T10:18:06.276Z,84.65
2024-02-02T10:20:42.068Z,85.35
2024-02-02T10:23:14.922Z,84.71
2024-02-02T10:25:54.634Z,84.70
2024-02-02T10:28:23.827Z,84.21
2024-02-02T10:31:34.011Z,84.93
2024-02-02T10:34:06.717Z,84.22
2024-02-02T10:36:45.636Z,84.72
2024-02-02T10:39:37.252Z,84.60
2024-02-02T10:42:06.796Z,84.21
2024-02-02T10:44:43.270Z,84.12
2024-02-02T10:47:45.335Z,84.35
2024-02-02T10:50:43.960Z,84.67
2024-02-02T10:53:29.193Z,83.71
2024-02-02T10:56:15.175Z,84.32
2024-02-02T10:59:04.711Z,84.22
2024-02-02T11:01:35.570Z,83.92
2024-02-02T11:04:26.115Z,84.18
2024-02-02T11:07:07.202Z,84.19
2024-02-02T11:09:56.259Z,84.58
2024-02-02T11:12:45.558Z,83.95
2024-02-02T11:15:43.131Z,84.17
2024-02-02T11:18:31.103Z,84.37
2024-02-02T11:21:25.113Z,84.00
2024-02-02T11:24:00.581Z,84.46
2024-02-02T11:26:38.557Z,84.24
2024-02-02T11:29:26.528Z,84.41
2024-02-02T11:32:08.445Z,84.70
2024-02-02T11:34:53.466Z,83.79
2024-02-02T11:37:32.620Z,84.68
2024-02-02T11:40:09.315Z,85.01
2024-02-02T11:42:40.060Z,84.77
2024-02-02T11:45:16.564Z,85.64
2024-02-02T11:48:01.781Z,85.27
2024-02-02T11:50:34.375Z,85.02
2024-02-02T11:53:23.622Z,85.38
2024-02-02T11:55:56.741Z,85.10
2024-02-02T11:58:25.198Z,85.19
2024-02-02T12:01:11.400Z,85.75
2024-02-02T12:04:02.335Z,85.78
2024-02-02T12:06:37.229Z,85.53
2024-02-02T12:09:19.580Z,85.83
2024-02-02T12:11:52.446Z,85.57
2024-02-02T12:14:43.170Z,86.02
2024-02-02T12:17:12.002Z,85.32
2024-02-02T12:19:38.658Z,85.74
2024-02-02T12:22:05.501Z,85.14
2024-02-02T12:24:32.811Z,85.79
2024-02-02T12:26:59.606Z,85.93
2024-02-02T12:29:26.694Z,85.87
2024-02-02T12:31:53.307Z,85.87
2024-02-02T12:34:20.154Z,86.10
2024-02-02T12:36:46.837Z,86.12
2024-02-02T12:39:13.540Z,85.74
2024-02-02T12:41:40.661Z,86.08
2024-02-02T12:44:08.037Z,85.98
2024-02-02T12:46:48.521Z,86.50
2024-02-02T12:49:15.368Z,85.81
2024-02-02T12:51:44.081Z,85.91
2024-02-02T12:54:11.863Z,85.72
2024-02-02T12:56:38.832Z,85.55
2024-02-02T12:59:06.900Z,85.86
2024-02-02T13:01:34.074Z,85.84
2024-02-02T13:04:01.189Z,85.82
2024-02-02T13:06:27.961Z,85.83
2024-02-02T13:08:55.031Z,85.88
2024-02-02T13:11:24.835Z,85.96
2024-02-02T13:13:51.346Z,85.80
2024-02-02T13:16:30.793Z,86.52
2024-02-02T13:18:59.337Z,86.05
2024-02-02T13:21:30.268Z,86.37
2024-02-02T13:23:57.925Z,86.44
2024-02-02T13:26:38.058Z,87.03
2024-02-02T13:29:08.967Z,86.19
2024-02-02T13:31:38.841Z,86.63
2024-02-02T13:34:06.695Z,86.68
2024-02-02T13:36:40.300Z,86.63
2024-02-02T13:39:07.419Z,86.65
2024-02-02T13:41:37.802Z,86.49
2024-02-02T13:44:09.224Z,86.89
2024-02-02T13:46:46.033Z,87.58
2024-02-02T13:49:26.387Z,87.85
2024-02-02T13:51:53.978Z,86.98
2024-02-02T13:54:21.243Z,87.16
2024-02-02T13:56:48.176Z,87.31
2024-02-02T13:59:19.126Z,87.38
2024-02-02T14:01:47.118Z,87.22
2024-02-02T14:04:23.177Z,87.39
2024-02-02T14:06:50.013Z,87.63
2024-02-02T14:09:23.776Z,88.19
2024-02-02T14:11:51.625Z,87.43
2024-02-02T14:14:25.121Z,88.24
2024-02-02T14:16:51.829Z,87.49
2024-02-02T14:19:19.689Z,87.88
2024-02-02T14:21:46.454Z,87.92
2024-02-02T14:24:17.243Z,88.05
2024-02-02T14:26:57.063Z,88.24
2024-02-02T14:29:27.602Z,88.37
2024-02-02T14:31:56.187Z,87.95
2024-02-02T14:34:24.246Z,87.81
2024-02-02T14:36:51.439Z,88.25
2024-02-02T14:39:26.425Z,87.99
2024-02-02T14:41:54.770Z,88.07
2024-02-02T14:44:21.398Z,88.08
2024-02-02T14:46:48.026Z,88.67
2024-02-02T14:49:15.235Z,88.19
2024-02-02T14:51:42.175Z,88.39
2024-02-02T14:54:09.467Z,88.66
2024-02-02T14:56:37.725Z,88.85
2024-02-02T14:59:13.664Z,88.76
2024-02-02T15:01:41.308Z,88.96
2024-02-02T15:04:08.994Z,89.00
2024-02-02T15:06:38.192Z,89.53
2024-02-02T15:09:10.272Z,89.57
2024-02-02T15:11:37.384Z,89.47
2024-02-02T15:14:03.997Z,89.53
2024-02-02T15:16:32.365Z,89.61
2024-02-02T15:18:59.180Z,90.00
2024-02-02T15:21:26.005Z,90.51
2024-02-02T15:23:52.560Z,90.75
2024-02-02T15:26:19.065Z,91.19
2024-02-02T15:28:45.562Z,91.30
2024-02-02T15:31:12.788Z,91.48
2024-02-02T15:33:39.419Z,92.36
2024-02-02T15:36:06.390Z,92.82
2024-02-02T15:38:32.923Z,93.58
2024-02-02T15:41:00.573Z,94.09
2024-02-02T15:43:27.742Z,93.93
2024-02-02T15:45:55.231Z,94.07
2024-02-02T15:48:22.576Z,93.80
2024-02-02T15:50:50.471Z,94.41
2024-02-02T15:53:19.159Z,94.88
2024-02-02T15:55:48.309Z,95.10
2024-02-02T15:58:14.891Z,94.94
2024-02-02T16:00:41.450Z,94.97
2024-02-02T16:03:08.892Z,94.97
2024-02-02T16:05:36.406Z,95.66
2024-02-02T16:08:03.015Z,95.82
2024-02-02T16:10:30.857Z,96.93
2024-02-02T16:13:00.262Z,96.51
2024-02-02T16:15:28.614Z,96.82
2024-02-02T16:17:55.369Z,96.72
2024-02-02T16:20:22.019Z,96.85
2024-02-02T16:22:48.563Z,96.87
2024-02-02T16:25:21.017Z,97.55
2024-02-02T16:27:47.780Z,97.70
2024-02-02T16:30:14.846Z,97.83
2024-02-02T16:32:41.463Z,98.71
2024-02-02T16:35:09.071Z,98.64
2024-02-02T16:37:39.342Z,98.80
2024-02-02T16:40:11.166Z,98.77
2024-02-02T16:42:41.246Z,98.68
2024-02-02T16:45:09.070Z,99.33
2024-02-02T16:47:35.815Z,99.46
2024-02-02T16:50:02.890Z,100.00
2024-02-02T16:52:29.530Z,100.00
2024-02-02T16:54:56.072Z,99.81
2024-02-02T16:57:22.594Z,100.00
2024-02-02T16:59:49.074Z,100.00
2024-02-02T17:02:15.655Z,100.00
2024-02-02T17:04:43.161Z,100.00
2024-02-02T17:07:10.424Z,100.00
2024-02-02T17:09:40.201Z,100.00
2024-02-02T17:12:09.895Z,100.00
2024-02-02T17:14:36.439Z,100.00
2024-02-02T17:17:02.972Z,100.00
2024-02-02T17:19:29.854Z,100.00
2024-02-02T17:21:56.548Z,100.00
2024-02-02T17:24:23.118Z,100.00
2024-02-02T17:26:49.786Z,100.00
2024-02-02T17:29:18.256Z,100.00
2024-02-02T17:31:47.188Z,100.00
2024-02-02T17:34:14.638Z,100.00
2024-02-02T17:36:41.457Z,100.00
2024-02-02T17:39:08.215Z,100.00
2024-02-02T17:41:34.958Z,100.00
2024-02-02T17:44:01.571Z,100.00
2024-02-02T17:46:28.119Z,100.00
2024-02-02T17:48:54.679Z,100.00
2024-02-02T17:51:22.872Z,100.00
2024-02-02T17:53:50.085Z,100.00
2024-02-02T17:56:18.250Z,100.00
2024-02-02T17:58:44.797Z,100.00
2024-02-02T18:01:11.962Z,100.00
2024-02-02T18:03:38.705Z,100.00
2024-02-02T18:06:06.158Z,100.00
2024-02-02T18:08:32.925Z,100.00
2024-02-02T18:11:00.555Z,100.00
2024-02-02T18:13:27.197Z,100.00
2024-02-02T18:15:54.062Z,100.00
2024-02-02T18:18:22.951Z,100.00
2024-02-02T18:20:49.748Z,100.00
2024-02-02T18:23:16.287Z,100.00
2024-02-02T18:25:42.847Z,100.00
2024-02-02T18:28:13.776Z,100.00
2024-02-02T18:30:43.578Z,100.00
2024-02-02T18:33:10.469Z,100.00
2024-02-02T18:35:37.162Z,100.00
2024-02-02T18:38:03.861Z,100.00
2024-02-02T18:40:30.467Z,100.00
2024-02-02T18:42:57.315Z,100.00
2024-02-02T18:45:23.945Z,100.00
2024-02-02T18:47:50.730Z,100.00
2024-02-02T18:50:19.275Z,100.00
2024-02-02T18:52:50.046Z,100.00
2024-02-02T18:55:16.636Z,100.00
2024-02-02T18:57:43.315Z,100.00
2024-02-02T19:00:10.555Z,100.00
2024-02-02T19:02:37.160Z,100.00
2024-02-02T19:05:04.100Z,100.00
2024-02-02T19:07:33.540Z,100.00
2024-02-02T19:10:00.275Z,100.00
2024-02-02T19:12:27.030Z,100.00
2024-02-02T19:14:53.922Z,100.00
2024-02-02T19:17:20.449Z,100.00
2024-02-02T19:19:47.095Z,100.00
2024-02-02T19:22:13.633Z,100.00
2024-02-02T19:24:40.218Z,100.00
2024-02-02T19:27:06.867Z,100.00
2024-02-02T19:29:33.383Z,100.00
2024-02-02T19:31:59.866Z,100.00
2024-02-02T19:34:26.550Z,100.00
2024-02-02T19:36:53.116Z,100.00
2024-02-02T19:39:19.646Z,100.00
2024-02-02T19:41:47.118Z,100.00
2024-02-02T19:44:13.739Z,100.00
2024-02-02T19:46:40.211Z,100.00
2024-02-02T19:49:09.521Z,100.00
2024-02-02T19:51:39.168Z,100.00
2024-02-02T19:54:06.091Z,100.00
2024-02-02T19:56:32.658Z,100.00
2024-02-02T19:58:59.190Z,100.00
2024-02-02T20:01:26.949Z,100.00
2024-02-02T20:03:54.074Z,100.00
2024-02-02T20:06:21.120Z,100.00
2024-02-02T20:08:49.140Z,100.00
2024-02-02T20:11:19.964Z,100.00
2024-02-02T20:13:47.407Z,100.00
2024-02-02T20:16:19.181Z,100.00
2024-02-02T20:18:46.164Z,100.00
2024-02-02T20:21:14.568Z,100.00
2024-02-02T20:23:41.378Z,100.00
2024-02-02T20:26:09.287Z,100.00
2024-02-02T20:28:35.878Z,100.00
2024-02-02T20:31:03.730Z,100.00
2024-02-02T20:33:30.459Z,100.00
2024-02-02T20:35:57.280Z,100.00
2024-02-02T20:38:24.071Z,100.00
2024-02-02T20:40:50.595Z,100.00
2024-02-02T20:43:17.092Z,100.00
2024-02-02T20:45:43.709Z,100.00
2024-02-02T20:48:10.378Z,100.00
2024-02-02T20:50:37.175Z,100.00
2024-02-02T20:53:03.908Z,100.00
2024-02-02T20:55:30.421Z,100.00
2024-02-02T20:58:01.935Z,100.00
2024-02-02T21:00:28.823Z,100.00
2024-02-02T21:02:55.397Z,100.00
2024-02-02T21:05:22.276Z,99.76
2024-02-02T21:07:49.061Z,99.76
2024-02-02T21:10:15.702Z,99.37
2024-02-02T21:12:42.786Z,99.17
2024-02-02T21:15:09.728Z,98.95
2024-02-02T21:17:37.989Z,98.83
2024-02-02T21:20:04.944Z,98.36
2024-02-02T21:22:34.446Z,98.40
2024-02-02T21:25:01.034Z,98.18
2024-02-02T21:27:27.547Z,97.75
2024-02-02T21:29:54.051Z,97.52
2024-02-02T21:32:20.565Z,97.33
2024-02-02T21:34:47.139Z,97.09
2024-02-02T21:37:14.805Z,96.95
2024-02-02T21:39:41.383Z,96.68
2024-02-02T21:42:07.973Z,96.58
2024-02-02T21:44:37.489Z,96.39
2024-02-02T21:47:04.573Z,96.34
2024-02-02T21:49:34.395Z,96.33
2024-02-02T21:52:01.080Z,96.08
2024-02-02T21:54:28.988Z,95.73
2024-02-02T21:56:55.719Z,95.54
2024-02-02T21:59:22.290Z,95.34
2024-02-02T22:01:48.789Z,95.17
2024-02-02T22:04:15.416Z,94.80
2024-02-02T22:06:41.982Z,94.75
2024-02-02T22:09:09.604Z,94.44
2024-02-02T22:11:36.402Z,94.14
2024-02-02T22:14:02.979Z,93.76
2024-02-02T22:16:29.811Z,93.64
2024-02-02T22:18:57.103Z,93.49
2024-02-02T22:21:25.278Z,93.26
2024-02-02T22:23:52.008Z,92.94
2024-02-02T22:26:21.867Z,93.23
2024-02-02T22:28:49.033Z,92.47
2024-02-02T22:31:22.636Z,92.78
2024-02-02T22:33:50.631Z,92.09
2024-02-02T22:36:21.980Z,92.18
2024-02-02T22:38:49.590Z,91.63
2024-02-02T22:41:33.056Z,92.17
2024-02-02T22:44:02.225Z,91.42
2024-02-02T22:46:33.948Z,91.70
2024-02-02T22:49:01.615Z,91.02
2024-02-02T22:51:28.435Z,90.92
2024-02-02T22:53:54.978Z,90.55
2024-02-02T22:56:21.592Z,90.48
2024-02-02T22:58:48.191Z,90.53
2024-02-02T23:01:14.981Z,90.42
2024-02-02T23:03:41.791Z,90.35
2024-02-02T23:06:08.568Z,90.42
2024-02-02T23:08:35.366Z,90.27
2024-02-02T23:11:01.940Z,89.97
2024-02-02T23:13:28.604Z,89.93
2024-02-02T23:15:57.192Z,89.93
2024-02-02T23:18:25.298Z,89.82
2024-02-02T23:20:53.548Z,89.68
2024-02-02T23:23:20.307Z,89.40
2024-02-02T23:25:47.008Z,89.64
2024-02-02T23:28:13.865Z,89.32
2024-02-02T23:30:40.872Z,89.25
2024-02-02T23:33:07.693Z,89.19
2024-02-02T23:35:34.325Z,89.18
2024-02-02T23:38:00.986Z,89.16
2024-02-02T23:40:27.498Z,89.11
2024-02-02T23:42:54.071Z,89.00
2024-02-02T23:45:20.754Z,89.03
2024-02-02T23:47:47.307Z,89.06
2024-02-02T23:50:14.064Z,88.82
2024-02-02T23:52:40.816Z,89.06
2024-02-02T23:55:08.121Z,89.56
2024-02-02T23:57:35.133Z,89.84
